If you wish to contribute or participate in the discussions about articles you are invited to join SKYbrary as a registered user

 Actions

Saint-Brieuc-Armor Airport

From SKYbrary Wiki

LFRT
Airport
ICAO: LFRT – IATA: SBK
Summary
Name Saint-Brieuc-Armor Airport
Region Europe
Territory France FR.gif
Location , Bretagne
Serving St.-brieuc Armor
Elevation 138.074 m
453 ft
453 ft138.074 m
Type medium airport
Coordinates 48° 32' 16.00" N, 2° 51' 16.00" W
Runways
Designator Length Width Surface ROPS
6/24 2200 m7,217.848 ft
45 m147.638 ft
ASP /


METAR
Observation LFRT 161900Z AUTO 22003KT CAVOK 12/11 Q1008
Station Saint-Brieuc
Date/Time 16 October 2019 19:00:00
Wind direction 220°
Wind speed 03 kts
Lowest cloud amount clouds and visibility OK
Temperature 12°C
Dew point 11°C
Humidity 93%
QNH 1008 hPa
Weather condition n/a